sensor_id;sensor_type;location;lat;lon;timestamp;temperature;humidity
37984;DHT22;64625;50.882;4.376;2023-05-07T00:00:37;16.90;99.90
37984;DHT22;64625;50.882;4.376;2023-05-07T00:03:03;16.90;99.90
37984;DHT22;64625;50.882;4.376;2023-05-07T00:05:29;17.00;99.90
37984;DHT22;64625;50.882;4.376;2023-05-07T00:07:55;17.00;99.90
37984;DHT22;64625;50.882;4.376;2023-05-07T00:10:21;17.00;99.90
37984;DHT22;64625;50.882;4.376;2023-05-07T00:12:47;17.00;99.90
37984;DHT22;64625;50.882;4.376;2023-05-07T00:15:13;17.00;99.90
37984;DHT22;64625;50.882;4.376;2023-05-07T00:17:38;17.00;99.90
37984;DHT22;64625;50.882;4.376;2023-05-07T00:20:05;17.00;99.90
37984;DHT22;64625;50.882;4.376;2023-05-07T00:22:31;17.00;99.90
37984;DHT22;64625;50.882;4.376;2023-05-07T00:24:58;17.00;99.90
37984;DHT22;64625;50.882;4.376;2023-05-07T00:27:24;17.00;99.90
37984;DHT22;64625;50.882;4.376;2023-05-07T00:29:50;17.00;99.90
37984;DHT22;64625;50.882;4.376;2023-05-07T00:32:16;17.00;99.90
37984;DHT22;64625;50.882;4.376;2023-05-07T00:34:43;17.00;99.90
37984;DHT22;64625;50.882;4.376;2023-05-07T00:37:09;16.90;99.90
37984;DHT22;64625;50.882;4.376;2023-05-07T00:39:35;16.90;99.90
37984;DHT22;64625;50.882;4.376;2023-05-07T00:42:01;16.90;99.90
37984;DHT22;64625;50.882;4.376;2023-05-07T00:44:30;16.90;99.90
37984;DHT22;64625;50.882;4.376;2023-05-07T00:46:57;16.80;99.90
37984;DHT22;64625;50.882;4.376;2023-05-07T00:49:39;16.80;99.90
37984;DHT22;64625;50.882;4.376;2023-05-07T00:52:09;16.70;99.90
37984;DHT22;64625;50.882;4.376;2023-05-07T00:54:36;16.70;99.90
37984;DHT22;64625;50.882;4.376;2023-05-07T00:57:03;16.70;99.90
37984;DHT22;64625;50.882;4.376;2023-05-07T00:59:31;16.70;99.90
37984;DHT22;64625;50.882;4.376;2023-05-07T01:01:57;16.70;99.90
37984;DHT22;64625;50.882;4.376;2023-05-07T01:04:23;16.70;99.90
37984;DHT22;64625;50.882;4.376;2023-05-07T01:06:50;16.60;99.90
37984;DHT22;64625;50.882;4.376;2023-05-07T01:09:16;16.70;99.90
37984;DHT22;64625;50.882;4.376;2023-05-07T01:11:43;16.70;99.90
37984;DHT22;64625;50.882;4.376;2023-05-07T01:14:09;16.60;99.90
37984;DHT22;64625;50.882;4.376;2023-05-07T01:16:36;16.60;99.90
37984;DHT22;64625;50.882;4.376;2023-05-07T01:19:03;16.60;99.90
37984;DHT22;64625;50.882;4.376;2023-05-07T01:21:33;16.50;99.90
37984;DHT22;64625;50.882;4.376;2023-05-07T01:24:00;16.60;99.90
37984;DHT22;64625;50.882;4.376;2023-05-07T01:26:27;16.50;99.90
37984;DHT22;64625;50.882;4.376;2023-05-07T01:28:53;16.50;99.90
37984;DHT22;64625;50.882;4.376;2023-05-07T01:31:19;16.50;99.90
37984;DHT22;64625;50.882;4.376;2023-05-07T01:33:46;16.50;99.90
37984;DHT22;64625;50.882;4.376;2023-05-07T01:36:14;16.40;99.90
37984;DHT22;64625;50.882;4.376;2023-05-07T01:38:41;16.40;99.90
37984;DHT22;64625;50.882;4.376;2023-05-07T01:41:08;16.40;99.90
37984;DHT22;64625;50.882;4.376;2023-05-07T01:43:34;16.40;99.90
37984;DHT22;64625;50.882;4.376;2023-05-07T01:46:01;16.40;99.90
37984;DHT22;64625;50.882;4.376;2023-05-07T01:48:28;16.30;99.90
37984;DHT22;64625;50.882;4.376;2023-05-07T01:50:55;16.30;99.90
37984;DHT22;64625;50.882;4.376;2023-05-07T01:53:21;16.30;99.90
37984;DHT22;64625;50.882;4.376;2023-05-07T01:55:47;16.30;99.90
37984;DHT22;64625;50.882;4.376;2023-05-07T01:58:12;16.30;99.90
37984;DHT22;64625;50.882;4.376;2023-05-07T02:00:40;16.20;99.90
37984;DHT22;64625;50.882;4.376;2023-05-07T02:03:06;16.20;99.90
37984;DHT22;64625;50.882;4.376;2023-05-07T02:05:32;16.20;99.90
37984;DHT22;64625;50.882;4.376;2023-05-07T02:07:57;16.10;99.90
37984;DHT22;64625;50.882;4.376;2023-05-07T02:10:23;16.10;99.90
37984;DHT22;64625;50.882;4.376;2023-05-07T02:12:49;16.10;99.90
37984;DHT22;64625;50.882;4.376;2023-05-07T02:15:15;16.00;99.90
37984;DHT22;64625;50.882;4.376;2023-05-07T02:18:05;16.00;99.90
37984;DHT22;64625;50.882;4.376;2023-05-07T02:20:34;16.00;99.90
37984;DHT22;64625;50.882;4.376;2023-05-07T02:23:00;16.00;99.90
37984;DHT22;64625;50.882;4.376;2023-05-07T02:25:26;16.00;99.90
37984;DHT22;64625;50.882;4.376;2023-05-07T02:27:52;15.90;99.90
37984;DHT22;64625;50.882;4.376;2023-05-07T02:30:18;15.90;99.90
37984;DHT22;64625;50.882;4.376;2023-05-07T02:32:43;15.90;99.90
37984;DHT22;64625;50.882;4.376;2023-05-07T02:35:10;15.90;99.90
37984;DHT22;64625;50.882;4.376;2023-05-07T02:37:37;15.90;99.90
37984;DHT22;64625;50.882;4.376;2023-05-07T02:40:04;15.80;99.90
37984;DHT22;64625;50.882;4.376;2023-05-07T02:42:30;15.80;99.90
37984;DHT22;64625;50.882;4.376;2023-05-07T02:44:56;15.80;99.90
37984;DHT22;64625;50.882;4.376;2023-05-07T02:47:22;15.80;99.90
37984;DHT22;64625;50.882;4.376;2023-05-07T02:49:48;15.70;99.90
37984;DHT22;64625;50.882;4.376;2023-05-07T02:52:14;15.70;99.90
37984;DHT22;64625;50.882;4.376;2023-05-07T02:54:39;15.70;99.90
37984;DHT22;64625;50.882;4.376;2023-05-07T02:57:08;15.60;99.90
37984;DHT22;64625;50.882;4.376;2023-05-07T02:59:34;15.60;99.90
37984;DHT22;64625;50.882;4.376;2023-05-07T03:02:00;15.60;99.90
37984;DHT22;64625;50.882;4.376;2023-05-07T03:04:25;15.60;99.90
37984;DHT22;64625;50.882;4.376;2023-05-07T03:06:51;15.60;99.90
37984;DHT22;64625;50.882;4.376;2023-05-07T03:09:18;15.60;99.90
37984;DHT22;64625;50.882;4.376;2023-05-07T03:11:44;15.60;99.90
37984;DHT22;64625;50.882;4.376;2023-05-07T03:14:09;15.60;99.90
37984;DHT22;64625;50.882;4.376;2023-05-07T03:16:35;15.60;99.90
37984;DHT22;64625;50.882;4.376;2023-05-07T03:19:02;15.60;99.90
37984;DHT22;64625;50.882;4.376;2023-05-07T03:21:28;15.60;99.90
37984;DHT22;64625;50.882;4.376;2023-05-07T03:23:54;15.60;99.90
37984;DHT22;64625;50.882;4.376;2023-05-07T03:26:20;15.60;99.90
37984;DHT22;64625;50.882;4.376;2023-05-07T03:28:46;15.60;99.90
37984;DHT22;64625;50.882;4.376;2023-05-07T03:31:12;15.60;99.90
37984;DHT22;64625;50.882;4.376;2023-05-07T03:33:55;15.60;99.90
37984;DHT22;64625;50.882;4.376;2023-05-07T03:36:21;15.70;99.90
37984;DHT22;64625;50.882;4.376;2023-05-07T03:38:48;15.60;99.90
37984;DHT22;64625;50.882;4.376;2023-05-07T03:41:14;15.70;99.90
37984;DHT22;64625;50.882;4.376;2023-05-07T03:43:40;15.70;99.90
37984;DHT22;64625;50.882;4.376;2023-05-07T03:46:06;15.70;99.90
37984;DHT22;64625;50.882;4.376;2023-05-07T03:48:32;15.70;99.90
37984;DHT22;64625;50.882;4.376;2023-05-07T03:50:59;15.70;99.90
37984;DHT22;64625;50.882;4.376;2023-05-07T03:53:25;15.70;99.90
37984;DHT22;64625;50.882;4.376;2023-05-07T03:55:51;15.70;99.90
37984;DHT22;64625;50.882;4.376;2023-05-07T03:58:16;15.70;99.90
37984;DHT22;64625;50.882;4.376;2023-05-07T04:00:42;15.70;99.90
37984;DHT22;64625;50.882;4.376;2023-05-07T04:03:08;15.70;99.90
37984;DHT22;64625;50.882;4.376;2023-05-07T04:05:34;15.70;99.90
37984;DHT22;64625;50.882;4.376;2023-05-07T04:08:00;15.70;99.90
37984;DHT22;64625;50.882;4.376;2023-05-07T04:10:26;15.70;99.90
37984;DHT22;64625;50.882;4.376;2023-05-07T04:12:54;15.70;99.90
37984;DHT22;64625;50.882;4.376;2023-05-07T04:15:21;15.70;99.90
37984;DHT22;64625;50.882;4.376;2023-05-07T04:17:47;15.70;99.90
37984;DHT22;64625;50.882;4.376;2023-05-07T04:20:16;15.70;99.90
37984;DHT22;64625;50.882;4.376;2023-05-07T04:22:42;15.70;99.90
37984;DHT22;64625;50.882;4.376;2023-05-07T04:25:09;15.70;99.90
37984;DHT22;64625;50.882;4.376;2023-05-07T04:27:35;15.60;99.90
37984;DHT22;64625;50.882;4.376;2023-05-07T04:30:02;15.70;99.90
37984;DHT22;64625;50.882;4.376;2023-05-07T04:32:29;15.60;99.90
37984;DHT22;64625;50.882;4.376;2023-05-07T04:34:55;15.70;99.90
37984;DHT22;64625;50.882;4.376;2023-05-07T04:37:21;15.70;99.90
37984;DHT22;64625;50.882;4.376;2023-05-07T04:39:47;15.70;99.90
37984;DHT22;64625;50.882;4.376;2023-05-07T04:42:17;15.80;99.90
37984;DHT22;64625;50.882;4.376;2023-05-07T04:44:44;15.80;99.90
37984;DHT22;64625;50.882;4.376;2023-05-07T04:47:10;15.80;99.90
37984;DHT22;64625;50.882;4.376;2023-05-07T04:49:37;15.80;99.90
37984;DHT22;64625;50.882;4.376;2023-05-07T04:52:03;15.70;99.90
37984;DHT22;64625;50.882;4.376;2023-05-07T04:54:29;15.80;99.90
37984;DHT22;64625;50.882;4.376;2023-05-07T04:56:55;15.70;99.90
37984;DHT22;64625;50.882;4.376;2023-05-07T04:59:21;15.80;99.90
37984;DHT22;64625;50.882;4.376;2023-05-07T05:01:47;15.80;99.90
37984;DHT22;64625;50.882;4.376;2023-05-07T05:04:17;15.80;99.90
37984;DHT22;64625;50.882;4.376;2023-05-07T05:06:43;15.80;99.90
37984;DHT22;64625;50.882;4.376;2023-05-07T05:09:09;15.80;99.90
37984;DHT22;64625;50.882;4.376;2023-05-07T05:11:35;15.80;99.90
37984;DHT22;64625;50.882;4.376;2023-05-07T05:14:01;15.80;99.90
37984;DHT22;64625;50.882;4.376;2023-05-07T05:16:27;15.80;99.90
37984;DHT22;64625;50.882;4.376;2023-05-07T05:18:53;15.90;99.90
37984;DHT22;64625;50.882;4.376;2023-05-07T05:21:20;15.90;99.90
37984;DHT22;64625;50.882;4.376;2023-05-07T05:23:46;15.90;99.90
37984;DHT22;64625;50.882;4.376;2023-05-07T05:26:15;16.00;99.90
37984;DHT22;64625;50.882;4.376;2023-05-07T05:28:41;16.00;99.90
37984;DHT22;64625;50.882;4.376;2023-05-07T05:31:07;16.00;99.90
37984;DHT22;64625;50.882;4.376;2023-05-07T05:33:33;16.10;99.90
37984;DHT22;64625;50.882;4.376;2023-05-07T05:35:58;16.10;99.90
37984;DHT22;64625;50.882;4.376;2023-05-07T05:38:24;16.10;99.90
37984;DHT22;64625;50.882;4.376;2023-05-07T05:40:51;16.10;99.90
37984;DHT22;64625;50.882;4.376;2023-05-07T05:43:17;16.20;99.90
37984;DHT22;64625;50.882;4.376;2023-05-07T05:45:42;16.20;99.90
37984;DHT22;64625;50.882;4.376;2023-05-07T05:48:08;16.20;99.90
37984;DHT22;64625;50.882;4.376;2023-05-07T05:50:34;16.30;99.90
37984;DHT22;64625;50.882;4.376;2023-05-07T05:53:03;16.30;99.90
37984;DHT22;64625;50.882;4.376;2023-05-07T05:55:29;16.30;99.90
37984;DHT22;64625;50.882;4.376;2023-05-07T05:57:56;16.30;99.90
37984;DHT22;64625;50.882;4.376;2023-05-07T06:00:22;16.30;99.90
37984;DHT22;64625;50.882;4.376;2023-05-07T06:02:48;16.40;99.90
37984;DHT22;64625;50.882;4.376;2023-05-07T06:05:14;16.40;99.90
37984;DHT22;64625;50.882;4.376;2023-05-07T06:07:40;16.40;99.90
37984;DHT22;64625;50.882;4.376;2023-05-07T06:10:06;16.40;99.90
37984;DHT22;64625;50.882;4.376;2023-05-07T06:12:32;16.50;99.90
37984;DHT22;64625;50.882;4.376;2023-05-07T06:14:58;16.50;99.90
37984;DHT22;64625;50.882;4.376;2023-05-07T06:17:24;16.50;99.90
37984;DHT22;64625;50.882;4.376;2023-05-07T06:19:50;16.60;99.90
37984;DHT22;64625;50.882;4.376;2023-05-07T06:22:16;16.60;99.90
37984;DHT22;64625;50.882;4.376;2023-05-07T06:24:42;16.60;99.90
37984;DHT22;64625;50.882;4.376;2023-05-07T06:27:08;16.70;99.90
37984;DHT22;64625;50.882;4.376;2023-05-07T06:29:34;16.70;99.90
37984;DHT22;64625;50.882;4.376;2023-05-07T06:32:09;16.70;99.90
37984;DHT22;64625;50.882;4.376;2023-05-07T06:34:36;16.70;99.90
37984;DHT22;64625;50.882;4.376;2023-05-07T06:37:02;16.80;99.90
37984;DHT22;64625;50.882;4.376;2023-05-07T06:39:28;16.80;99.90
37984;DHT22;64625;50.882;4.376;2023-05-07T06:41:54;16.80;99.90
37984;DHT22;64625;50.882;4.376;2023-05-07T06:44:20;16.80;99.90
37984;DHT22;64625;50.882;4.376;2023-05-07T06:46:46;16.90;99.90
37984;DHT22;64625;50.882;4.376;2023-05-07T06:49:12;16.90;99.90
37984;DHT22;64625;50.882;4.376;2023-05-07T06:51:38;17.00;99.90
37984;DHT22;64625;50.882;4.376;2023-05-07T06:54:04;17.00;99.90
37984;DHT22;64625;50.882;4.376;2023-05-07T06:56:31;17.00;99.90
37984;DHT22;64625;50.882;4.376;2023-05-07T06:58:57;17.10;99.90
37984;DHT22;64625;50.882;4.376;2023-05-07T07:01:23;17.10;99.90
37984;DHT22;64625;50.882;4.376;2023-05-07T07:03:48;17.10;99.90
37984;DHT22;64625;50.882;4.376;2023-05-07T07:06:14;17.10;99.90
37984;DHT22;64625;50.882;4.376;2023-05-07T07:08:40;17.20;99.90
37984;DHT22;64625;50.882;4.376;2023-05-07T07:11:06;17.20;99.90
37984;DHT22;64625;50.882;4.376;2023-05-07T07:13:32;17.30;99.90
37984;DHT22;64625;50.882;4.376;2023-05-07T07:15:58;17.30;99.90
37984;DHT22;64625;50.882;4.376;2023-05-07T07:18:24;17.30;99.90
37984;DHT22;64625;50.882;4.376;2023-05-07T07:20:50;17.40;99.90
37984;DHT22;64625;50.882;4.376;2023-05-07T07:23:15;17.40;99.90
37984;DHT22;64625;50.882;4.376;2023-05-07T07:25:41;17.40;99.90
37984;DHT22;64625;50.882;4.376;2023-05-07T07:28:07;17.40;99.90
37984;DHT22;64625;50.882;4.376;2023-05-07T07:30:33;17.40;99.90
37984;DHT22;64625;50.882;4.376;2023-05-07T07:32:58;17.50;99.90
37984;DHT22;64625;50.882;4.376;2023-05-07T07:35:34;17.40;99.90
37984;DHT22;64625;50.882;4.376;2023-05-07T07:38:00;17.50;99.90
37984;DHT22;64625;50.882;4.376;2023-05-07T07:40:27;17.40;99.90
37984;DHT22;64625;50.882;4.376;2023-05-07T07:42:54;17.50;99.90
37984;DHT22;64625;50.882;4.376;2023-05-07T07:45:20;17.40;99.90
37984;DHT22;64625;50.882;4.376;2023-05-07T07:47:46;17.40;99.90
37984;DHT22;64625;50.882;4.376;2023-05-07T07:50:12;17.40;99.90
37984;DHT22;64625;50.882;4.376;2023-05-07T07:52:38;17.40;99.90
37984;DHT22;64625;50.882;4.376;2023-05-07T07:55:04;17.40;99.90
37984;DHT22;64625;50.882;4.376;2023-05-07T07:57:30;17.40;99.90
37984;DHT22;64625;50.882;4.376;2023-05-07T07:59:56;17.40;99.90
37984;DHT22;64625;50.882;4.376;2023-05-07T08:02:22;17.40;99.90
37984;DHT22;64625;50.882;4.376;2023-05-07T08:04:48;17.40;99.90
37984;DHT22;64625;50.882;4.376;2023-05-07T08:07:13;17.40;99.90
37984;DHT22;64625;50.882;4.376;2023-05-07T08:09:40;17.40;99.90
37984;DHT22;64625;50.882;4.376;2023-05-07T08:12:06;17.30;99.90
37984;DHT22;64625;50.882;4.376;2023-05-07T08:14:33;17.30;99.90
37984;DHT22;64625;50.882;4.376;2023-05-07T08:17:00;17.30;99.90
37984;DHT22;64625;50.882;4.376;2023-05-07T08:19:26;17.30;99.90
37984;DHT22;64625;50.882;4.376;2023-05-07T08:21:52;17.30;99.90
37984;DHT22;64625;50.882;4.376;2023-05-07T08:24:18;17.30;99.90
37984;DHT22;64625;50.882;4.376;2023-05-07T08:26:44;17.30;99.90
37984;DHT22;64625;50.882;4.376;2023-05-07T08:29:10;17.30;99.90
37984;DHT22;64625;50.882;4.376;2023-05-07T08:31:36;17.30;99.90
37984;DHT22;64625;50.882;4.376;2023-05-07T08:34:04;17.30;99.90
37984;DHT22;64625;50.882;4.376;2023-05-07T08:36:30;17.40;99.90
37984;DHT22;64625;50.882;4.376;2023-05-07T08:38:57;17.40;99.90
37984;DHT22;64625;50.882;4.376;2023-05-07T08:41:23;17.40;99.90
37984;DHT22;64625;50.882;4.376;2023-05-07T08:43:50;17.40;99.90
37984;DHT22;64625;50.882;4.376;2023-05-07T08:46:22;17.40;99.90
37984;DHT22;64625;50.882;4.376;2023-05-07T08:48:49;17.30;99.90
37984;DHT22;64625;50.882;4.376;2023-05-07T08:51:20;17.30;99.90
37984;DHT22;64625;50.882;4.376;2023-05-07T08:53:48;17.30;99.90
37984;DHT22;64625;50.882;4.376;2023-05-07T08:56:15;17.30;99.90
37984;DHT22;64625;50.882;4.376;2023-05-07T08:58:42;17.20;99.90
37984;DHT22;64625;50.882;4.376;2023-05-07T09:01:10;17.20;99.90
37984;DHT22;64625;50.882;4.376;2023-05-07T09:03:39;17.20;99.90
37984;DHT22;64625;50.882;4.376;2023-05-07T09:06:06;17.20;99.90
37984;DHT22;64625;50.882;4.376;2023-05-07T09:08:35;17.20;99.90
37984;DHT22;64625;50.882;4.376;2023-05-07T09:11:02;17.10;99.90
37984;DHT22;64625;50.882;4.376;2023-05-07T09:13:29;17.10;99.90
37984;DHT22;64625;50.882;4.376;2023-05-07T09:15:55;17.10;99.90
37984;DHT22;64625;50.882;4.376;2023-05-07T09:18:24;17.10;99.90
37984;DHT22;64625;50.882;4.376;2023-05-07T09:20:50;17.10;99.90
37984;DHT22;64625;50.882;4.376;2023-05-07T09:23:16;17.10;99.90
37984;DHT22;64625;50.882;4.376;2023-05-07T09:25:42;17.10;99.90
37984;DHT22;64625;50.882;4.376;2023-05-07T09:28:08;17.00;99.90
37984;DHT22;64625;50.882;4.376;2023-05-07T09:30:36;17.00;99.90
37984;DHT22;64625;50.882;4.376;2023-05-07T09:33:03;17.00;99.90
37984;DHT22;64625;50.882;4.376;2023-05-07T09:35:29;17.00;99.90
37984;DHT22;64625;50.882;4.376;2023-05-07T09:37:58;17.00;99.90
37984;DHT22;64625;50.882;4.376;2023-05-07T09:40:26;17.00;99.90
37984;DHT22;64625;50.882;4.376;2023-05-07T09:42:53;17.00;99.90
37984;DHT22;64625;50.882;4.376;2023-05-07T09:45:28;17.00;99.90
37984;DHT22;64625;50.882;4.376;2023-05-07T09:47:56;17.00;99.90
37984;DHT22;64625;50.882;4.376;2023-05-07T09:50:48;17.00;99.90
37984;DHT22;64625;50.882;4.376;2023-05-07T09:53:14;17.00;99.90
37984;DHT22;64625;50.882;4.376;2023-05-07T09:55:42;17.00;99.90
37984;DHT22;64625;50.882;4.376;2023-05-07T09:58:09;17.10;99.90
37984;DHT22;64625;50.882;4.376;2023-05-07T10:00:37;17.10;99.90
37984;DHT22;64625;50.882;4.376;2023-05-07T10:03:04;17.10;99.90
37984;DHT22;64625;50.882;4.376;2023-05-07T10:05:31;17.10;99.90
37984;DHT22;64625;50.882;4.376;2023-05-07T10:07:58;17.10;99.90
37984;DHT22;64625;50.882;4.376;2023-05-07T10:10:26;17.20;99.90
37984;DHT22;64625;50.882;4.376;2023-05-07T10:12:53;17.20;99.90
37984;DHT22;64625;50.882;4.376;2023-05-07T10:15:19;17.20;99.90
37984;DHT22;64625;50.882;4.376;2023-05-07T10:17:46;17.30;99.90
37984;DHT22;64625;50.882;4.376;2023-05-07T10:20:12;17.30;99.90
37984;DHT22;64625;50.882;4.376;2023-05-07T10:22:41;17.30;99.90
37984;DHT22;64625;50.882;4.376;2023-05-07T10:25:18;17.40;99.90
37984;DHT22;64625;50.882;4.376;2023-05-07T10:27:47;17.30;99.90
37984;DHT22;64625;50.882;4.376;2023-05-07T10:33:03;17.30;99.90
37984;DHT22;64625;50.882;4.376;2023-05-07T10:35:37;17.40;99.90
37984;DHT22;64625;50.882;4.376;2023-05-07T10:38:06;17.40;99.90
37984;DHT22;64625;50.882;4.376;2023-05-07T10:40:32;17.40;99.90
37984;DHT22;64625;50.882;4.376;2023-05-07T10:42:59;17.50;99.90
37984;DHT22;64625;50.882;4.376;2023-05-07T10:45:26;17.50;99.90
37984;DHT22;64625;50.882;4.376;2023-05-07T10:48:13;17.50;99.90
37984;DHT22;64625;50.882;4.376;2023-05-07T10:50:40;17.60;99.90
37984;DHT22;64625;50.882;4.376;2023-05-07T10:58:28;17.60;99.90
37984;DHT22;64625;50.882;4.376;2023-05-07T11:00:59;17.60;99.90
37984;DHT22;64625;50.882;4.376;2023-05-07T11:03:26;17.60;99.90
37984;DHT22;64625;50.882;4.376;2023-05-07T11:08:56;17.70;99.90
37984;DHT22;64625;50.882;4.376;2023-05-07T11:11:45;17.70;99.90
37984;DHT22;64625;50.882;4.376;2023-05-07T11:14:12;17.70;99.90
37984;DHT22;64625;50.882;4.376;2023-05-07T11:16:38;17.70;99.90
37984;DHT22;64625;50.882;4.376;2023-05-07T11:19:06;17.80;99.90
37984;DHT22;64625;50.882;4.376;2023-05-07T11:21:38;17.80;99.90
37984;DHT22;64625;50.882;4.376;2023-05-07T11:24:05;17.80;99.90
37984;DHT22;64625;50.882;4.376;2023-05-07T11:26:52;17.80;99.90
37984;DHT22;64625;50.882;4.376;2023-05-07T11:29:20;17.80;99.90
37984;DHT22;64625;50.882;4.376;2023-05-07T11:31:51;17.80;99.90
37984;DHT22;64625;50.882;4.376;2023-05-07T11:34:23;17.90;99.90
37984;DHT22;64625;50.882;4.376;2023-05-07T11:36:49;17.90;99.90
37984;DHT22;64625;50.882;4.376;2023-05-07T11:39:29;17.90;99.90
37984;DHT22;64625;50.882;4.376;2023-05-07T11:41:56;18.00;99.90
37984;DHT22;64625;50.882;4.376;2023-05-07T11:44:22;18.00;99.90
37984;DHT22;64625;50.882;4.376;2023-05-07T11:46:48;18.00;99.90
37984;DHT22;64625;50.882;4.376;2023-05-07T11:49:14;18.10;99.90
37984;DHT22;64625;50.882;4.376;2023-05-07T11:51:41;18.10;99.90
37984;DHT22;64625;50.882;4.376;2023-05-07T11:54:08;18.20;99.90
37984;DHT22;64625;50.882;4.376;2023-05-07T11:56:36;18.20;99.90
37984;DHT22;64625;50.882;4.376;2023-05-07T11:59:02;18.20;99.90
37984;DHT22;64625;50.882;4.376;2023-05-07T12:01:28;18.20;99.90
37984;DHT22;64625;50.882;4.376;2023-05-07T12:03:55;18.20;99.90
37984;DHT22;64625;50.882;4.376;2023-05-07T12:06:20;18.20;99.90
37984;DHT22;64625;50.882;4.376;2023-05-07T12:08:47;18.20;99.90
37984;DHT22;64625;50.882;4.376;2023-05-07T12:11:24;18.30;99.90
37984;DHT22;64625;50.882;4.376;2023-05-07T12:13:50;18.30;99.90
37984;DHT22;64625;50.882;4.376;2023-05-07T12:16:17;18.30;99.90
37984;DHT22;64625;50.882;4.376;2023-05-07T12:18:48;18.30;99.90
37984;DHT22;64625;50.882;4.376;2023-05-07T12:21:14;18.40;99.90
37984;DHT22;64625;50.882;4.376;2023-05-07T12:23:42;18.40;99.90
37984;DHT22;64625;50.882;4.376;2023-05-07T12:26:08;18.50;99.90
37984;DHT22;64625;50.882;4.376;2023-05-07T12:28:38;18.50;99.90
37984;DHT22;64625;50.882;4.376;2023-05-07T12:31:05;18.50;99.90
37984;DHT22;64625;50.882;4.376;2023-05-07T12:33:31;18.50;99.90
37984;DHT22;64625;50.882;4.376;2023-05-07T12:35:58;18.60;99.90
37984;DHT22;64625;50.882;4.376;2023-05-07T12:38:37;18.60;99.90
37984;DHT22;64625;50.882;4.376;2023-05-07T12:41:03;18.70;99.90
37984;DHT22;64625;50.882;4.376;2023-05-07T12:43:30;18.70;99.90
37984;DHT22;64625;50.882;4.376;2023-05-07T12:45:57;18.80;99.90
37984;DHT22;64625;50.882;4.376;2023-05-07T12:48:23;18.80;99.90
37984;DHT22;64625;50.882;4.376;2023-05-07T12:50:56;18.80;99.90
37984;DHT22;64625;50.882;4.376;2023-05-07T12:53:25;18.80;99.90
37984;DHT22;64625;50.882;4.376;2023-05-07T12:55:55;18.90;99.90
37984;DHT22;64625;50.882;4.376;2023-05-07T12:58:28;18.90;99.90
37984;DHT22;64625;50.882;4.376;2023-05-07T13:00:56;19.00;99.90
37984;DHT22;64625;50.882;4.376;2023-05-07T13:03:27;19.00;99.90
37984;DHT22;64625;50.882;4.376;2023-05-07T13:05:54;19.10;99.90
37984;DHT22;64625;50.882;4.376;2023-05-07T13:08:30;19.10;99.90
37984;DHT22;64625;50.882;4.376;2023-05-07T13:10:58;19.10;99.90
37984;DHT22;64625;50.882;4.376;2023-05-07T13:13:24;19.10;99.90
37984;DHT22;64625;50.882;4.376;2023-05-07T13:15:53;19.20;99.90
37984;DHT22;64625;50.882;4.376;2023-05-07T13:18:19;19.20;99.90
37984;DHT22;64625;50.882;4.376;2023-05-07T13:20:45;19.20;99.90
37984;DHT22;64625;50.882;4.376;2023-05-07T13:23:11;19.30;99.90
37984;DHT22;64625;50.882;4.376;2023-05-07T13:25:37;19.30;99.90
37984;DHT22;64625;50.882;4.376;2023-05-07T13:28:02;19.30;99.90
37984;DHT22;64625;50.882;4.376;2023-05-07T13:30:30;19.30;99.90
37984;DHT22;64625;50.882;4.376;2023-05-07T13:33:18;19.30;99.90
37984;DHT22;64625;50.882;4.376;2023-05-07T13:35:44;19.40;99.90
37984;DHT22;64625;50.882;4.376;2023-05-07T13:38:10;19.40;99.90
37984;DHT22;64625;50.882;4.376;2023-05-07T13:40:36;19.40;99.90
37984;DHT22;64625;50.882;4.376;2023-05-07T13:43:05;19.40;99.90
37984;DHT22;64625;50.882;4.376;2023-05-07T13:45:31;19.50;99.90
37984;DHT22;64625;50.882;4.376;2023-05-07T13:47:57;19.50;99.90
37984;DHT22;64625;50.882;4.376;2023-05-07T13:50:23;19.50;99.90
37984;DHT22;64625;50.882;4.376;2023-05-07T13:52:50;19.50;99.90
37984;DHT22;64625;50.882;4.376;2023-05-07T13:55:19;19.60;99.90
37984;DHT22;64625;50.882;4.376;2023-05-07T13:57:46;19.50;99.90
37984;DHT22;64625;50.882;4.376;2023-05-07T14:00:13;19.60;99.90
37984;DHT22;64625;50.882;4.376;2023-05-07T14:02:40;19.60;99.90
37984;DHT22;64625;50.882;4.376;2023-05-07T14:05:06;19.60;99.90
37984;DHT22;64625;50.882;4.376;2023-05-07T14:07:32;19.60;99.90
37984;DHT22;64625;50.882;4.376;2023-05-07T14:09:58;19.60;99.90
37984;DHT22;64625;50.882;4.376;2023-05-07T14:12:24;19.60;99.90
37984;DHT22;64625;50.882;4.376;2023-05-07T14:14:50;19.70;99.90
37984;DHT22;64625;50.882;4.376;2023-05-07T14:17:19;19.70;99.90
37984;DHT22;64625;50.882;4.376;2023-05-07T14:19:45;19.70;99.90
37984;DHT22;64625;50.882;4.376;2023-05-07T14:22:13;19.70;99.90
37984;DHT22;64625;50.882;4.376;2023-05-07T14:24:40;19.80;99.90
37984;DHT22;64625;50.882;4.376;2023-05-07T14:27:06;19.80;99.90
37984;DHT22;64625;50.882;4.376;2023-05-07T14:29:32;19.80;99.90
37984;DHT22;64625;50.882;4.376;2023-05-07T14:31:58;19.80;99.90
37984;DHT22;64625;50.882;4.376;2023-05-07T14:34:24;19.90;99.90
37984;DHT22;64625;50.882;4.376;2023-05-07T14:36:49;19.90;99.90
37984;DHT22;64625;50.882;4.376;2023-05-07T14:39:15;20.00;99.90
37984;DHT22;64625;50.882;4.376;2023-05-07T14:41:41;20.00;99.90
37984;DHT22;64625;50.882;4.376;2023-05-07T14:44:07;20.00;99.90
37984;DHT22;64625;50.882;4.376;2023-05-07T14:46:33;20.00;99.90
37984;DHT22;64625;50.882;4.376;2023-05-07T14:49:02;20.00;99.90
37984;DHT22;64625;50.882;4.376;2023-05-07T14:51:28;20.10;99.90
37984;DHT22;64625;50.882;4.376;2023-05-07T14:53:54;20.10;99.90
37984;DHT22;64625;50.882;4.376;2023-05-07T14:56:20;20.10;99.90
37984;DHT22;64625;50.882;4.376;2023-05-07T14:58:47;20.10;99.90
37984;DHT22;64625;50.882;4.376;2023-05-07T15:01:16;20.10;99.90
37984;DHT22;64625;50.882;4.376;2023-05-07T15:03:42;20.10;99.90
37984;DHT22;64625;50.882;4.376;2023-05-07T15:06:08;20.10;99.90
37984;DHT22;64625;50.882;4.376;2023-05-07T15:08:33;20.10;99.90
37984;DHT22;64625;50.882;4.376;2023-05-07T15:10:59;20.20;99.90
37984;DHT22;64625;50.882;4.376;2023-05-07T15:13:25;20.10;99.90
37984;DHT22;64625;50.882;4.376;2023-05-07T15:15:51;20.20;99.90
37984;DHT22;64625;50.882;4.376;2023-05-07T15:18:17;20.10;99.90
37984;DHT22;64625;50.882;4.376;2023-05-07T15:20:43;20.20;99.90
37984;DHT22;64625;50.882;4.376;2023-05-07T15:23:09;20.20;99.90
37984;DHT22;64625;50.882;4.376;2023-05-07T15:25:37;20.20;99.90
37984;DHT22;64625;50.882;4.376;2023-05-07T15:28:03;20.20;99.90
37984;DHT22;64625;50.882;4.376;2023-05-07T15:30:29;20.10;99.90
37984;DHT22;64625;50.882;4.376;2023-05-07T15:32:55;20.10;99.90
37984;DHT22;64625;50.882;4.376;2023-05-07T15:35:21;20.10;99.90
37984;DHT22;64625;50.882;4.376;2023-05-07T15:37:48;20.10;99.90
37984;DHT22;64625;50.882;4.376;2023-05-07T15:40:21;20.10;99.90